Time;durP1;ratioP1;P1;durP2;ratioP2;P2;SDS_P1;SDS_P2;PMS_P1;PMS_P2;Temp;Humidity;BMP_temperature;BMP_pressure;BME280_temperature;BME280_humidity;BME280_pressure;Samples;Min_cycle;Max_cycle;Signal;HPM_P1;HPM_P2
2023/06/25 00:02:06;;;;;;;8.83;6.93;;;21.50;1.00;;;;;;5012695;28;20182;-83
2023/06/25 00:04:35;;;;;;;10.37;6.60;;;21.40;1.00;;;;;;5013141;28;20257;-86
2023/06/25 00:07:00;;;;;;;7.67;6.90;;;21.40;1.00;;;;;;5013109;28;20175;-86
2023/06/25 00:09:26;;;;;;;8.23;7.40;;;21.40;1.00;;;;;;5015872;28;20907;-83
2023/06/25 00:11:51;;;;;;;9.67;7.10;;;21.30;1.00;;;;;;5013260;28;20583;-84
2023/06/25 00:14:17;;;;;;;12.90;9.43;;;21.30;1.00;;;;;;5012994;28;20223;-88
2023/06/25 00:16:42;;;;;;;15.63;8.53;;;21.30;1.00;;;;;;5012555;28;20179;-86
2023/06/25 00:19:08;;;;;;;10.30;7.87;;;21.20;1.00;;;;;;5020754;28;20178;-84
2023/06/25 00:21:34;;;;;;;10.80;8.03;;;21.20;1.00;;;;;;5027951;28;20183;-84
2023/06/25 00:23:59;;;;;;;10.43;8.03;;;21.10;1.00;;;;;;5023007;28;20531;-83
2023/06/25 00:26:25;;;;;;;9.80;8.20;;;21.10;1.00;;;;;;5028327;28;20171;-86
2023/06/25 00:28:50;;;;;;;12.20;8.40;;;21.00;1.00;;;;;;5026349;28;20236;-83
2023/06/25 00:31:16;;;;;;;9.27;8.37;;;21.00;1.00;;;;;;5020032;28;20202;-83
2023/06/25 00:33:42;;;;;;;10.07;8.57;;;21.00;1.00;;;;;;5012465;28;20396;-84
2023/06/25 00:36:09;;;;;;;10.40;7.90;;;21.00;1.00;;;;;;5012980;28;20187;-84
2023/06/25 00:38:37;;;;;;;9.60;8.30;;;21.00;6.70;;;;;;5016080;28;20418;-84
2023/06/25 00:41:03;;;;;;;10.47;9.33;;;20.90;6.10;;;;;;5016651;28;20410;-84
2023/06/25 00:43:29;;;;;;;12.23;9.20;;;20.90;13.90;;;;;;5016649;28;20471;-87
2023/06/25 00:45:54;;;;;;;9.53;8.00;;;20.90;11.40;;;;;;5015370;28;20438;-84
2023/06/25 00:48:21;;;;;;;14.13;9.57;;;20.90;6.20;;;;;;5015036;28;20174;-84
2023/06/25 00:50:47;;;;;;;10.10;8.50;;;20.90;7.90;;;;;;5016725;28;20167;-84
2023/06/25 00:53:13;;;;;;;11.10;8.80;;;20.80;18.70;;;;;;5016442;28;20751;-89
2023/06/25 00:55:39;;;;;;;8.90;8.00;;;20.80;29.70;;;;;;5016527;28;20428;-89
2023/06/25 00:58:04;;;;;;;11.77;9.80;;;20.80;36.60;;;;;;5016367;28;20228;-86
2023/06/25 01:00:33;;;;;;;10.53;9.40;;;20.70;27.00;;;;;;5016489;28;20175;-84
2023/06/25 01:03:03;;;;;;;10.47;8.37;;;20.70;28.40;;;;;;5015961;28;20173;-84
2023/06/25 01:05:53;;;;;;;12.30;9.47;;;20.60;41.50;;;;;;5015257;28;20815;-84
2023/06/25 01:08:21;;;;;;;10.60;8.83;;;20.60;60.00;;;;;;5016210;28;20421;-85
2023/06/25 01:10:47;;;;;;;10.27;8.53;;;20.60;81.60;;;;;;5016090;28;20957;-83
2023/06/25 01:13:12;;;;;;;10.13;8.27;;;20.50;94.50;;;;;;5015989;28;20477;-82
2023/06/25 01:15:38;;;;;;;11.20;8.97;;;20.60;94.80;;;;;;5016011;28;20269;-82
2023/06/25 01:18:07;;;;;;;11.13;8.60;;;20.60;86.40;;;;;;5015578;28;20644;-88
2023/06/25 01:20:32;;;;;;;10.90;8.07;;;20.50;76.20;;;;;;5015851;28;20190;-86
2023/06/25 01:22:58;;;;;;;11.30;8.57;;;20.50;69.70;;;;;;5015919;28;20410;-84
2023/06/25 01:25:24;;;;;;;11.90;8.87;;;20.50;68.90;;;;;;5016028;28;20241;-84
2023/06/25 01:27:50;;;;;;;10.90;9.80;;;20.40;59.40;;;;;;5016020;28;20586;-84
2023/06/25 01:30:17;;;;;;;10.43;8.90;;;20.40;86.20;;;;;;5015846;28;20434;-84
2023/06/25 01:32:44;;;;;;;9.33;8.33;;;20.40;99.90;;;;;;5015509;28;20163;-89
2023/06/25 01:35:11;;;;;;;10.30;9.23;;;20.40;99.90;;;;;;5015607;28;21046;-89
2023/06/25 01:37:37;;;;;;;10.53;8.57;;;20.40;97.80;;;;;;5015669;28;20420;-84
2023/06/25 01:40:07;;;;;;;9.77;7.90;;;20.40;89.00;;;;;;5015353;28;20421;-87
2023/06/25 01:42:34;;;;;;;11.00;9.30;;;20.30;84.90;;;;;;5014367;28;20179;-83
2023/06/25 01:44:59;;;;;;;10.70;8.60;;;20.30;92.40;;;;;;5015453;28;20416;-85
2023/06/25 01:47:24;;;;;;;12.00;8.97;;;20.30;98.90;;;;;;5014900;28;20421;-83
2023/06/25 01:49:50;;;;;;;11.67;9.60;;;20.30;97.80;;;;;;5014190;28;20170;-83
2023/06/25 01:52:15;;;;;;;12.23;8.37;;;20.30;93.80;;;;;;5015280;28;20206;-83
2023/06/25 01:54:41;;;;;;;9.37;8.00;;;20.30;84.60;;;;;;5015081;28;20605;-82
2023/06/25 01:57:06;;;;;;;10.77;8.10;;;20.30;79.00;;;;;;5015092;28;20185;-83
2023/06/25 01:59:34;;;;;;;10.30;9.20;;;20.20;84.00;;;;;;5015087;28;20194;-84
2023/06/25 02:02:02;;;;;;;10.37;8.10;;;20.20;91.20;;;;;;5014750;28;20171;-85
2023/06/25 02:04:28;;;;;;;11.20;9.70;;;20.20;85.10;;;;;;5015014;28;20425;-84
2023/06/25 02:06:54;;;;;;;11.20;8.20;;;20.10;80.70;;;;;;5014881;28;20414;-84
2023/06/25 02:09:20;;;;;;;10.30;9.30;;;20.10;78.70;;;;;;5014980;28;20546;-85
2023/06/25 02:11:46;;;;;;;10.70;8.87;;;20.00;87.00;;;;;;5014834;28;20416;-83
2023/06/25 02:14:12;;;;;;;10.50;8.97;;;20.00;97.10;;;;;;5014761;28;20217;-83
2023/06/25 02:16:37;;;;;;;11.20;9.87;;;20.00;99.90;;;;;;5014466;28;20183;-83
2023/06/25 02:19:03;;;;;;;11.77;8.60;;;20.10;99.90;;;;;;5014745;28;20175;-83
2023/06/25 02:21:28;;;;;;;10.00;8.13;;;20.00;99.90;;;;;;5014686;28;20217;-84
2023/06/25 02:23:54;;;;;;;12.53;8.93;;;19.90;99.90;;;;;;5014511;28;20175;-84
2023/06/25 02:26:19;;;;;;;13.43;9.33;;;19.90;99.90;;;;;;5016495;28;20178;-85
2023/06/25 02:28:45;;;;;;;10.80;8.90;;;19.90;99.90;;;;;;5043091;28;20181;-86
2023/06/25 02:31:10;;;;;;;11.33;8.70;;;19.80;99.90;;;;;;5033894;28;20181;-84
2023/06/25 02:33:36;;;;;;;11.00;8.67;;;19.80;99.90;;;;;;5033587;28;20220;-84
2023/06/25 02:36:01;;;;;;;10.53;8.83;;;19.80;99.90;;;;;;5032478;28;20189;-85
2023/06/25 02:38:27;;;;;;;10.83;8.20;;;19.80;99.90;;;;;;5033705;28;20199;-83
2023/06/25 02:40:58;;;;;;;9.53;7.97;;;19.80;99.90;;;;;;5032326;28;20697;-83
2023/06/25 02:43:24;;;;;;;11.27;8.97;;;19.80;99.90;;;;;;5033434;28;20193;-83
2023/06/25 02:45:49;;;;;;;12.80;8.47;;;19.80;99.90;;;;;;5033656;28;20477;-87
2023/06/25 02:48:15;;;;;;;10.90;7.90;;;19.80;99.90;;;;;;5033152;28;20182;-82
2023/06/25 02:50:40;;;;;;;12.47;8.83;;;19.70;99.90;;;;;;5033578;28;20259;-82
2023/06/25 02:53:06;;;;;;;12.20;8.33;;;19.70;99.90;;;;;;5048904;28;20185;-83
2023/06/25 02:55:31;;;;;;;10.40;8.30;;;19.70;99.90;;;;;;5033303;28;20663;-85
2023/06/25 02:57:57;;;;;;;11.17;9.10;;;19.70;99.90;;;;;;5033141;28;20244;-82
2023/06/25 03:00:22;;;;;;;11.53;9.70;;;19.60;99.90;;;;;;5033051;28;20173;-83
2023/06/25 03:02:51;;;;;;;14.67;9.53;;;19.60;99.90;;;;;;5033066;28;20194;-83
2023/06/25 03:05:16;;;;;;;9.70;8.37;;;19.60;99.90;;;;;;5033392;28;20168;-83
2023/06/25 03:07:56;;;;;;;10.83;9.73;;;19.60;99.90;;;;;;5033312;28;20416;-84
2023/06/25 03:10:30;;;;;;;10.80;9.60;;;19.60;99.90;;;;;;5033301;28;20278;-82
2023/06/25 03:12:56;;;;;;;9.50;7.43;;;19.70;99.90;;;;;;5033031;28;20831;-83
2023/06/25 03:15:22;;;;;;;11.57;8.80;;;19.70;99.90;;;;;;5033234;28;20565;-88
2023/06/25 03:17:47;;;;;;;9.57;8.57;;;19.70;99.90;;;;;;5033015;28;20445;-83
2023/06/25 03:20:16;;;;;;;10.07;9.07;;;19.70;99.90;;;;;;5033136;28;20182;-89
2023/06/25 03:22:41;;;;;;;10.67;8.10;;;19.70;99.90;;;;;;5032166;28;20201;-82
2023/06/25 03:25:07;;;;;;;9.07;7.90;;;19.60;99.90;;;;;;5032442;28;20451;-90
2023/06/25 03:27:34;;;;;;;10.33;9.23;;;19.60;99.90;;;;;;5033015;28;20191;-83
2023/06/25 03:30:03;;;;;;;11.20;7.87;;;19.60;99.90;;;;;;5032994;28;20417;-86
2023/06/25 03:32:30;;;;;;;10.90;9.50;;;19.60;99.90;;;;;;5032589;28;20431;-84
2023/06/25 03:34:56;;;;;;;12.45;9.40;;;19.60;99.90;;;;;;5032580;28;20441;-89
2023/06/25 03:37:23;;;;;;;11.70;9.80;;;19.70;99.90;;;;;;5033194;28;20521;-89
2023/06/25 03:39:48;;;;;;;8.33;7.53;;;19.80;99.90;;;;;;5032859;28;20167;-88
2023/06/25 03:42:13;;;;;;;10.53;8.50;;;19.80;99.90;;;;;;5032701;28;20457;-86
2023/06/25 03:44:49;;;;;;;9.63;8.63;;;19.90;99.90;;;;;;5032788;28;20174;-89
2023/06/25 03:47:15;;;;;;;9.30;7.10;;;19.80;99.90;;;;;;5032477;28;20706;-88
2023/06/25 03:49:41;;;;;;;10.77;9.67;;;19.80;99.90;;;;;;5032813;28;20532;-87
2023/06/25 03:52:07;;;;;;;8.53;7.73;;;19.80;99.90;;;;;;5032737;28;20173;-86
2023/06/25 03:54:32;;;;;;;10.40;7.80;;;19.80;99.90;;;;;;5032390;28;21010;-87
2023/06/25 03:56:58;;;;;;;9.93;8.90;;;19.80;99.90;;;;;;5028319;28;20185;-85
2023/06/25 03:59:23;;;;;;;12.90;7.90;;;19.80;99.90;;;;;;5012971;28;20189;-84
2023/06/25 04:01:49;;;;;;;9.53;8.10;;;19.80;99.90;;;;;;5012446;28;20195;-88
2023/06/25 04:04:15;;;;;;;9.57;7.80;;;19.90;99.90;;;;;;5019531;28;20272;-82
2023/06/25 04:06:40;;;;;;;11.40;9.63;;;19.90;99.90;;;;;;5032467;28;20170;-82
2023/06/25 04:09:06;;;;;;;9.90;8.13;;;19.90;99.90;;;;;;5032622;28;20673;-82
2023/06/25 04:11:31;;;;;;;11.50;9.57;;;20.00;99.90;;;;;;5032737;28;20178;-82
2023/06/25 04:13:56;;;;;;;11.20;9.90;;;20.10;99.90;;;;;;5036544;28;20233;-81
2023/06/25 04:16:22;;;;;;;15.00;9.90;;;20.20;99.90;;;;;;5036177;28;20272;-86
2023/06/25 04:18:47;;;;;;;11.00;9.17;;;20.20;99.90;;;;;;5036600;28;20230;-81
2023/06/25 04:21:13;;;;;;;12.97;10.40;;;20.30;99.90;;;;;;5036636;28;20637;-83
2023/06/25 04:23:39;;;;;;;11.93;10.60;;;20.30;99.90;;;;;;5036505;28;20224;-82
2023/06/25 04:26:04;;;;;;;12.27;10.23;;;20.40;99.90;;;;;;5035165;28;20196;-84
2023/06/25 04:28:30;;;;;;;13.40;11.77;;;20.40;99.90;;;;;;5035875;28;20409;-83
2023/06/25 04:30:55;;;;;;;11.30;10.10;;;20.40;99.90;;;;;;5035024;28;20546;-83
2023/06/25 04:33:21;;;;;;;13.37;10.70;;;20.50;99.90;;;;;;5036490;28;20210;-89
2023/06/25 04:35:46;;;;;;;11.37;10.10;;;20.60;99.90;;;;;;5034717;28;20200;-86
2023/06/25 04:38:12;;;;;;;10.63;9.63;;;20.70;99.90;;;;;;5036274;28;20625;-83
2023/06/25 04:40:37;;;;;;;12.10;10.43;;;20.80;99.90;;;;;;5036403;28;20635;-82
2023/06/25 04:43:03;;;;;;;11.67;9.93;;;20.90;99.90;;;;;;5036468;28;20197;-85
2023/06/25 04:45:28;;;;;;;16.00;10.80;;;21.00;99.90;;;;;;5036413;28;20253;-83
2023/06/25 04:47:54;;;;;;;11.73;10.60;;;21.10;99.90;;;;;;5036046;28;20178;-88
2023/06/25 04:50:20;;;;;;;12.93;11.40;;;21.10;99.90;;;;;;5036380;28;20175;-83
2023/06/25 04:52:46;;;;;;;12.37;11.03;;;21.20;99.90;;;;;;5036268;28;20179;-83
2023/06/25 04:55:31;;;;;;;12.23;10.93;;;21.30;99.90;;;;;;5035998;28;20499;-86
2023/06/25 04:57:57;;;;;;;12.57;11.27;;;21.30;99.90;;;;;;5034582;28;20229;-84
2023/06/25 05:00:22;;;;;;;11.83;10.63;;;21.40;99.90;;;;;;5036509;28;20422;-88
2023/06/25 05:02:48;;;;;;;11.93;10.73;;;21.50;99.90;;;;;;5037403;28;20531;-84
2023/06/25 05:05:13;;;;;;;13.00;11.43;;;21.60;99.90;;;;;;5038030;28;20175;-89
2023/06/25 05:07:39;;;;;;;12.10;10.90;;;21.70;99.90;;;;;;5018928;28;20537;-85
2023/06/25 05:10:05;;;;;;;12.07;10.83;;;21.80;99.90;;;;;;5034682;28;20239;-85
2023/06/25 05:12:30;;;;;;;14.07;12.20;;;21.80;99.90;;;;;;5035969;28;20174;-85
2023/06/25 05:14:56;;;;;;;12.50;11.20;;;21.90;99.90;;;;;;5035774;28;20471;-85
2023/06/25 05:17:21;;;;;;;13.03;11.73;;;21.90;99.90;;;;;;5035730;28;20309;-88
2023/06/25 05:19:47;;;;;;;13.63;11.70;;;22.00;99.90;;;;;;5036082;28;20183;-90
2023/06/25 05:22:12;;;;;;;12.40;10.57;;;22.00;99.90;;;;;;5036405;28;20173;-92
2023/06/25 05:24:38;;;;;;;12.80;11.47;;;22.10;99.90;;;;;;5036149;28;20184;-83
2023/06/25 05:27:03;;;;;;;11.90;10.40;;;22.20;99.90;;;;;;5036554;28;20172;-93
2023/06/25 05:29:29;;;;;;;12.87;11.57;;;22.20;99.90;;;;;;5036632;28;20631;-90
2023/06/25 05:31:58;;;;;;;14.53;11.53;;;22.30;94.60;;;;;;5036023;28;20210;-87
2023/06/25 05:34:24;;;;;;;12.70;10.80;;;22.40;93.20;;;;;;5035222;28;20211;-83
2023/06/25 05:36:49;;;;;;;11.97;10.43;;;22.40;33.00;;;;;;5035356;28;20511;-89
2023/06/25 05:39:15;;;;;;;11.20;10.00;;;22.50;32.50;;;;;;5035406;28;20184;-89
2023/06/25 05:41:40;;;;;;;14.80;10.97;;;22.60;20.40;;;;;;5035230;28;20172;-87
2023/06/25 05:44:06;;;;;;;12.27;11.07;;;22.70;1.00;;;;;;5035172;28;20541;-87
2023/06/25 05:46:32;;;;;;;13.23;10.60;;;22.80;1.00;;;;;;5034765;28;20182;-82
2023/06/25 05:49:01;;;;;;;14.30;11.87;;;22.80;1.00;;;;;;5035424;28;20412;-90
2023/06/25 05:51:26;;;;;;;11.40;10.20;;;23.00;1.00;;;;;;5036067;28;20170;-91
2023/06/25 05:53:54;;;;;;;11.63;9.40;;;23.10;1.00;;;;;;5035627;28;20468;-91
2023/06/25 05:56:19;;;;;;;10.70;9.60;;;23.20;1.00;;;;;;5035752;28;20526;-91
2023/06/25 05:58:44;;;;;;;11.43;9.13;;;23.40;1.00;;;;;;5034992;28;20467;-86
2023/06/25 06:01:10;;;;;;;11.20;8.63;;;23.60;1.00;;;;;;5034848;28;20238;-85
2023/06/25 06:03:39;;;;;;;19.30;10.40;;;23.70;99.90;;;;;;5034857;28;20181;-84
2023/06/25 06:06:07;;;;;;;11.43;9.70;;;23.80;99.90;;;;;;5034702;28;20200;-84
2023/06/25 06:08:32;;;;;;;9.70;8.70;;;24.00;99.90;;;;;;5034711;28;20770;-85
2023/06/25 06:10:58;;;;;;;10.77;8.17;;;24.10;99.90;;;;;;5034696;28;20419;-86
2023/06/25 06:13:23;;;;;;;9.50;8.50;;;24.30;99.90;;;;;;5034441;28;20182;-82
2023/06/25 06:15:49;;;;;;;8.80;7.10;;;24.50;99.90;;;;;;5034246;28;20216;-89
2023/06/25 06:18:14;;;;;;;11.23;8.53;;;24.70;52.40;;;;;;5034354;28;20239;-88
2023/06/25 06:20:41;;;;;;;9.13;8.27;;;24.70;1.00;;;;;;5033359;28;20283;-87
2023/06/25 06:23:06;;;;;;;11.90;8.37;;;24.90;43.30;;;;;;5033185;28;20421;-87
2023/06/25 06:25:32;;;;;;;8.60;7.50;;;24.90;99.90;;;;;;5034229;28;20182;-86
2023/06/25 06:27:57;;;;;;;9.20;7.97;;;25.10;1.00;;;;;;5034469;28;20271;-88
2023/06/25 06:30:23;;;;;;;10.00;7.90;;;25.20;1.00;;;;;;5033053;28;20592;-87
2023/06/25 06:32:48;;;;;;;8.80;7.60;;;25.30;99.90;;;;;;5033825;28;20184;-87
2023/06/25 06:35:14;;;;;;;7.60;6.00;;;25.40;1.00;;;;;;5033485;28;20568;-87
2023/06/25 06:37:39;;;;;;;5.70;5.10;;;25.50;99.90;;;;;;5032895;28;20212;-89
2023/06/25 06:40:06;;;;;;;6.77;5.27;;;25.60;99.90;;;;;;5034126;28;20647;-88
2023/06/25 06:42:33;;;;;;;6.23;5.63;;;25.70;1.00;;;;;;5034113;28;20170;-80
2023/06/25 06:44:59;;;;;;;6.80;6.10;;;25.80;1.00;;;;;;5033927;28;20418;-82
2023/06/25 06:47:24;;;;;;;6.53;4.57;;;25.80;99.90;;;;;;5033608;28;20467;-80
2023/06/25 06:49:50;;;;;;;5.70;5.20;;;25.70;1.00;;;;;;5033926;28;20221;-82
2023/06/25 06:52:15;;;;;;;6.17;5.13;;;25.90;1.00;;;;;;5033591;28;20170;-88
2023/06/25 06:54:41;;;;;;;6.33;5.00;;;26.00;1.00;;;;;;5020043;28;20221;-89
2023/06/25 06:57:06;;;;;;;7.13;6.10;;;26.10;99.90;;;;;;5013905;28;20171;-86
2023/06/25 06:59:32;;;;;;;6.53;5.07;;;26.10;99.90;;;;;;5014340;28;20540;-86
2023/06/25 07:01:57;;;;;;;6.30;5.70;;;26.30;99.90;;;;;;5033494;28;20272;-87
2023/06/25 07:04:26;;;;;;;6.43;5.00;;;26.40;99.90;;;;;;5034453;28;20178;-90
2023/06/25 07:06:52;;;;;;;5.63;5.00;;;26.80;99.90;;;;;;5032852;28;20182;-89
2023/06/25 07:09:25;;;;;;;6.60;5.17;;;27.10;99.90;;;;;;5032657;28;20424;-90
2023/06/25 07:11:50;;;;;;;5.33;4.27;;;27.50;99.90;;;;;;5034045;28;20186;-90
2023/06/25 07:14:16;;;;;;;6.70;4.70;;;27.90;99.90;;;;;;5033874;28;20551;-90
2023/06/25 07:16:41;;;;;;;7.13;5.33;;;28.50;99.90;;;;;;5031952;28;20594;-88
2023/06/25 07:19:07;;;;;;;6.67;6.03;;;28.90;86.20;;;;;;5033694;28;20170;-91
2023/06/25 07:21:33;;;;;;;7.27;6.30;;;29.40;54.50;;;;;;5032491;28;20265;-88
2023/06/25 07:23:58;;;;;;;5.50;4.43;;;30.00;12.20;;;;;;5031744;28;20209;-85
2023/06/25 07:26:24;;;;;;;7.30;5.87;;;30.30;1.00;;;;;;5024119;28;20174;-87
2023/06/25 07:28:50;;;;;;;6.33;5.27;;;30.90;1.00;;;;;;5031486;28;20233;-85
2023/06/25 07:31:15;;;;;;;8.50;5.20;;;31.30;1.00;;;;;;5032039;28;20466;-86
2023/06/25 07:33:41;;;;;;;6.80;5.67;;;31.60;1.00;;;;;;5031974;28;20205;-86
2023/06/25 07:36:06;;;;;;;10.70;6.20;;;31.80;1.00;;;;;;5032276;28;20181;-85
2023/06/25 07:38:32;;;;;;;7.07;5.83;;;32.10;1.00;;;;;;5032137;28;20262;-88
2023/06/25 07:40:57;;;;;;;5.53;5.03;;;32.30;1.00;;;;;;5032216;28;20224;-86
2023/06/25 07:43:23;;;;;;;6.40;5.20;;;32.60;1.00;;;;;;5032343;28;20163;-85
2023/06/25 07:45:48;;;;;;;5.60;5.10;;;33.10;1.00;;;;;;5031481;28;20288;-84
2023/06/25 07:48:14;;;;;;;5.50;4.40;;;33.20;1.00;;;;;;5032058;28;20557;-83
2023/06/25 07:50:39;;;;;;;6.20;4.90;;;33.50;1.00;;;;;;5031255;28;20296;-84
2023/06/25 07:53:05;;;;;;;5.80;4.87;;;33.60;1.00;;;;;;5033057;28;20166;-88
2023/06/25 07:55:31;;;;;;;5.53;4.80;;;33.90;1.00;;;;;;5032891;28;20636;-86
2023/06/25 07:57:57;;;;;;;7.67;5.77;;;33.90;1.00;;;;;;5032799;28;20217;-85
2023/06/25 08:00:22;;;;;;;6.33;5.73;;;34.10;1.00;;;;;;5032514;28;20504;-83
2023/06/25 08:02:48;;;;;;;11.00;5.00;;;34.30;1.00;;;;;;5032792;28;20641;-83
2023/06/25 08:05:13;;;;;;;7.30;5.60;;;34.50;1.00;;;;;;5032885;28;20174;-82
2023/06/25 08:07:39;;;;;;;6.47;5.87;;;34.60;1.00;;;;;;5032859;28;20175;-84
2023/06/25 08:10:05;;;;;;;5.90;4.87;;;34.60;1.00;;;;;;5032920;28;20177;-82
2023/06/25 08:12:30;;;;;;;4.47;4.03;;;34.80;1.00;;;;;;5032764;28;20166;-83
2023/06/25 08:14:56;;;;;;;5.03;4.43;;;34.90;1.00;;;;;;5032761;28;20464;-81
2023/06/25 08:17:21;;;;;;;5.00;4.50;;;35.20;1.00;;;;;;5032394;28;20213;-80
2023/06/25 08:19:47;;;;;;;4.87;4.13;;;35.40;1.00;;;;;;5032705;28;20198;-82
2023/06/25 08:22:12;;;;;;;5.23;4.30;;;35.40;1.00;;;;;;5032578;28;20205;-83
2023/06/25 08:24:38;;;;;;;4.30;3.90;;;35.40;1.00;;;;;;5032632;28;20584;-82
2023/06/25 08:27:03;;;;;;;4.90;4.50;;;35.40;1.00;;;;;;5032682;28;20265;-83
2023/06/25 08:29:30;;;;;;;6.43;4.33;;;35.50;1.00;;;;;;5032484;28;20166;-81
2023/06/25 08:31:56;;;;;;;4.43;4.03;;;35.60;1.00;;;;;;5032209;28;20178;-83
2023/06/25 08:34:21;;;;;;;4.83;4.17;;;35.60;1.00;;;;;;5032471;28;20483;-84
2023/06/25 08:36:47;;;;;;;4.40;4.00;;;35.70;1.00;;;;;;5032546;28;20249;-81
2023/06/25 08:39:12;;;;;;;5.00;4.03;;;35.60;1.00;;;;;;5032569;28;20205;-84
2023/06/25 08:41:38;;;;;;;4.17;3.70;;;35.80;1.00;;;;;;5032586;28;20174;-82
2023/06/25 08:44:03;;;;;;;4.80;4.20;;;36.00;1.00;;;;;;5032475;28;20221;-83
2023/06/25 08:46:32;;;;;;;4.97;4.50;;;36.30;1.00;;;;;;5032189;28;20174;-85
2023/06/25 08:48:59;;;;;;;6.00;4.87;;;36.70;1.00;;;;;;5032465;28;20220;-84
2023/06/25 08:51:25;;;;;;;5.10;4.70;;;36.80;1.00;;;;;;5032458;28;20427;-86
2023/06/25 08:53:50;;;;;;;4.67;4.23;;;36.90;1.00;;;;;;5032310;28;20535;-84
2023/06/25 08:56:17;;;;;;;4.27;3.90;;;37.00;1.00;;;;;;5032404;28;20178;-85
2023/06/25 08:58:43;;;;;;;5.90;4.50;;;37.20;1.00;;;;;;5034110;28;20323;-85
2023/06/25 09:01:15;;;;;;;5.53;5.03;;;37.20;1.00;;;;;;5035734;28;20444;-82
2023/06/25 09:03:44;;;;;;;8.00;6.10;;;37.20;1.00;;;;;;5036414;28;20421;-85
2023/06/25 09:06:14;;;;;;;6.57;5.30;;;37.20;1.00;;;;;;5035805;28;20421;-83
2023/06/25 09:08:41;;;;;;;6.30;5.80;;;36.90;1.00;;;;;;5035878;28;20451;-83
2023/06/25 09:11:06;;;;;;;5.63;5.23;;;36.80;1.00;;;;;;5035823;28;20765;-85
2023/06/25 09:13:32;;;;;;;9.20;5.50;;;37.20;1.00;;;;;;5035654;28;20420;-82
2023/06/25 09:16:03;;;;;;;6.37;5.77;;;37.50;1.00;;;;;;5028695;28;20198;-80
2023/06/25 09:18:31;;;;;;;5.63;5.10;;;37.70;1.00;;;;;;5023412;28;20539;-81
2023/06/25 09:21:04;;;;;;;6.40;5.90;;;37.70;1.00;;;;;;5015165;28;20429;-81
2023/06/25 09:23:30;;;;;;;6.80;6.30;;;37.70;1.00;;;;;;5030156;28;20441;-83
2023/06/25 09:25:56;;;;;;;7.80;5.60;;;37.40;1.00;;;;;;5035427;28;20425;-85
2023/06/25 09:28:21;;;;;;;6.53;5.10;;;37.30;1.00;;;;;;5035310;28;20182;-81
2023/06/25 09:30:47;;;;;;;5.83;5.30;;;37.30;1.00;;;;;;5021945;28;20186;-82
2023/06/25 09:33:13;;;;;;;6.40;5.63;;;37.50;1.00;;;;;;5020424;28;20270;-81
2023/06/25 09:35:39;;;;;;;5.80;5.30;;;37.80;1.00;;;;;;5021535;28;20214;-82
2023/06/25 09:38:05;;;;;;;5.70;5.20;;;38.00;1.00;;;;;;5020607;28;20425;-82
2023/06/25 09:40:31;;;;;;;4.47;4.07;;;38.10;1.00;;;;;;5021293;28;20187;-81
2023/06/25 09:42:58;;;;;;;5.47;4.97;;;38.20;1.00;;;;;;5020633;28;20440;-81
2023/06/25 09:45:27;;;;;;;6.00;5.40;;;38.00;1.00;;;;;;5020339;28;20245;-83
2023/06/25 09:47:55;;;;;;;4.97;4.40;;;38.10;1.00;;;;;;5021231;28;20449;-85
2023/06/25 09:50:27;;;;;;;4.83;4.53;;;38.20;1.00;;;;;;5014431;28;20457;-85
2023/06/25 09:52:58;;;;;;;5.57;5.07;;;38.30;1.00;;;;;;5014878;28;20938;-86
2023/06/25 09:55:28;;;;;;;5.60;5.10;;;38.00;1.00;;;;;;5014740;28;20469;-85
2023/06/25 09:57:54;;;;;;;5.53;5.03;;;38.00;1.00;;;;;;5029233;28;20465;-84
2023/06/25 10:00:22;;;;;;;4.77;4.20;;;38.00;1.00;;;;;;5033636;28;20420;-84
2023/06/25 10:02:49;;;;;;;4.80;4.40;;;38.10;1.00;;;;;;5032762;28;20810;-85
2023/06/25 10:05:14;;;;;;;4.90;4.50;;;38.00;1.00;;;;;;5034458;28;20425;-84
2023/06/25 10:07:40;;;;;;;5.60;5.20;;;37.80;1.00;;;;;;5030680;28;20913;-82
2023/06/25 10:10:07;;;;;;;5.17;4.67;;;37.80;1.00;;;;;;5026027;28;20186;-84
2023/06/25 10:12:35;;;;;;;3.57;3.30;;;38.00;1.00;;;;;;5016044;28;21012;-84
2023/06/25 10:15:03;;;;;;;4.50;4.07;;;38.20;1.00;;;;;;5014712;28;20484;-86
2023/06/25 10:17:28;;;;;;;4.63;4.23;;;38.00;1.00;;;;;;5031773;28;20452;-85
2023/06/25 10:19:58;;;;;;;4.63;4.10;;;38.00;1.00;;;;;;5033419;28;20980;-84
2023/06/25 10:22:26;;;;;;;4.67;4.27;;;38.10;1.00;;;;;;5033480;28;20264;-82
2023/06/25 10:24:53;;;;;;;4.97;4.57;;;37.90;1.00;;;;;;5026559;28;20537;-86
2023/06/25 10:27:24;;;;;;;4.70;4.30;;;37.80;1.00;;;;;;5027355;28;20425;-86
2023/06/25 10:29:50;;;;;;;4.20;3.80;;;37.70;1.00;;;;;;5030930;28;20429;-82
2023/06/25 10:32:39;;;;;;;6.17;4.13;;;37.60;1.00;;;;;;5032353;28;20944;-85
2023/06/25 10:35:05;;;;;;;4.47;4.10;;;37.30;1.00;;;;;;5032762;28;20531;-85
2023/06/25 10:37:37;;;;;;;4.67;4.30;;;37.50;1.00;;;;;;5033010;28;20807;-82
2023/06/25 10:40:08;;;;;;;4.50;4.20;;;37.50;1.00;;;;;;5033083;28;20425;-83
2023/06/25 10:42:36;;;;;;;4.03;3.73;;;37.80;1.00;;;;;;5032986;28;20420;-82
2023/06/25 10:45:07;;;;;;;4.93;4.50;;;37.80;1.00;;;;;;5031117;28;20478;-83
2023/06/25 10:47:34;;;;;;;5.47;5.00;;;37.60;1.00;;;;;;5024207;28;20440;-83
2023/06/25 10:49:59;;;;;;;5.27;4.17;;;37.60;1.00;;;;;;5017169;28;20457;-83
2023/06/25 10:52:25;;;;;;;5.27;4.57;;;37.70;1.00;;;;;;5012804;28;20513;-83
2023/06/25 10:54:54;;;;;;;4.90;4.40;;;36.70;1.00;;;;;;5012798;28;20705;-83
2023/06/25 10:57:19;;;;;;;4.87;4.50;;;36.50;1.00;;;;;;5012537;28;20226;-84
2023/06/25 10:59:45;;;;;;;5.40;4.97;;;36.50;1.00;;;;;;5012753;28;20942;-84
2023/06/25 11:02:20;;;;;;;4.33;3.93;;;36.50;1.00;;;;;;5012626;28;20662;-84
2023/06/25 11:04:54;;;;;;;4.83;4.43;;;36.80;1.00;;;;;;5012620;28;20501;-81
2023/06/25 11:07:20;;;;;;;5.23;4.83;;;36.80;1.00;;;;;;5012583;28;20415;-85
2023/06/25 11:09:55;;;;;;;5.00;4.60;;;36.60;1.00;;;;;;5012626;28;20828;-82
2023/06/25 11:12:21;;;;;;;4.87;4.37;;;36.10;1.00;;;;;;5012635;28;20426;-81
2023/06/25 11:14:47;;;;;;;5.37;4.90;;;36.00;1.00;;;;;;5012164;28;20499;-84
2023/06/25 11:17:19;;;;;;;5.63;5.13;;;35.60;1.00;;;;;;5012641;28;20221;-85
2023/06/25 11:19:55;;;;;;;5.70;5.00;;;35.30;1.00;;;;;;5012603;28;20658;-87
2023/06/25 11:22:21;;;;;;;5.43;5.00;;;35.20;1.00;;;;;;5012122;28;20406;-82
2023/06/25 11:24:47;;;;;;;5.77;4.90;;;35.00;1.00;;;;;;5012394;28;20763;-84
2023/06/25 11:27:14;;;;;;;5.70;5.20;;;35.50;1.00;;;;;;5012551;28;20179;-84
2023/06/25 11:29:41;;;;;;;5.13;4.73;;;35.80;1.00;;;;;;5017687;28;20178;-85
2023/06/25 11:32:09;;;;;;;4.87;4.40;;;36.10;1.00;;;;;;5017648;28;20422;-83
2023/06/25 11:34:44;;;;;;;6.43;4.90;;;36.20;1.00;;;;;;5012174;28;20473;-82
2023/06/25 11:37:11;;;;;;;5.03;4.63;;;36.00;1.00;;;;;;5012190;28;20987;-85
2023/06/25 11:39:47;;;;;;;4.53;4.13;;;36.00;1.00;;;;;;5012297;28;20482;-86
2023/06/25 11:42:15;;;;;;;4.83;4.47;;;36.00;1.00;;;;;;5012320;28;20425;-82
2023/06/25 11:44:41;;;;;;;5.70;5.20;;;35.90;1.00;;;;;;5011817;28;20441;-86
2023/06/25 11:47:10;;;;;;;5.30;4.80;;;35.30;1.00;;;;;;5012126;28;20944;-79
2023/06/25 11:49:37;;;;;;;6.00;4.77;;;35.00;1.00;;;;;;5027057;28;20753;-83
2023/06/25 11:52:03;;;;;;;6.83;6.33;;;34.70;1.00;;;;;;5031953;28;20432;-84
2023/06/25 11:54:28;;;;;;;5.67;5.07;;;34.50;1.00;;;;;;5031664;28;20976;-85
2023/06/25 11:56:53;;;;;;;5.87;5.20;;;34.20;1.00;;;;;;5031680;28;20167;-86
2023/06/25 11:59:19;;;;;;;5.67;5.17;;;34.00;1.00;;;;;;5031820;28;20232;-86
2023/06/25 12:01:44;;;;;;;6.43;5.93;;;33.70;1.00;;;;;;5031351;28;20172;-86
2023/06/25 12:04:10;;;;;;;5.57;5.07;;;33.50;1.00;;;;;;5031432;28;20383;-84
2023/06/25 12:06:35;;;;;;;5.93;5.50;;;33.20;1.00;;;;;;5031464;28;20183;-83
2023/06/25 12:09:03;;;;;;;5.60;5.10;;;32.90;1.00;;;;;;5031281;28;20253;-87
2023/06/25 12:11:28;;;;;;;5.70;5.20;;;32.70;1.00;;;;;;5031871;28;20173;-81
2023/06/25 12:13:54;;;;;;;5.53;5.03;;;32.50;1.00;;;;;;5031368;28;20915;-82
2023/06/25 12:16:20;;;;;;;6.30;5.03;;;32.70;1.00;;;;;;5030579;28;20174;-84
2023/06/25 12:18:45;;;;;;;5.23;4.73;;;33.20;1.00;;;;;;5031635;28;20185;-82
2023/06/25 12:21:11;;;;;;;5.30;4.90;;;33.70;1.00;;;;;;5030960;28;20187;-82
2023/06/25 12:23:39;;;;;;;5.40;4.90;;;34.10;1.00;;;;;;5032356;28;20184;-83
2023/06/25 12:26:04;;;;;;;5.33;4.93;;;34.50;1.00;;;;;;5032059;28;20178;-84
2023/06/25 12:28:30;;;;;;;4.93;4.53;;;34.60;1.00;;;;;;5030277;28;20443;-85
2023/06/25 12:30:55;;;;;;;5.43;4.97;;;34.80;1.00;;;;;;5021032;28;20178;-86
2023/06/25 12:33:21;;;;;;;6.47;5.07;;;35.00;1.00;;;;;;5033634;28;20261;-86
2023/06/25 12:35:47;;;;;;;5.10;4.60;;;35.30;1.00;;;;;;5051227;28;20583;-82
2023/06/25 12:38:15;;;;;;;5.10;4.50;;;35.40;1.00;;;;;;5036030;28;20170;-85
2023/06/25 12:40:40;;;;;;;4.70;4.30;;;35.40;1.00;;;;;;5035503;28;20188;-83
2023/06/25 12:43:06;;;;;;;4.73;4.33;;;35.40;1.00;;;;;;5035830;28;20840;-83
2023/06/25 12:45:31;;;;;;;4.10;3.70;;;35.70;1.00;;;;;;5035446;28;20261;-84